Time;durP1;ratioP1;P1;durP2;ratioP2;P2;SDS_P1;SDS_P2;PMS_P1;PMS_P2;Temp;Humidity;BMP_temperature;BMP_pressure;BME280_temperature;BME280_humidity;BME280_pressure;Samples;Min_cycle;Max_cycle;Signal;HPM_P1;HPM_P2
2021/12/14 00:02:12;;;;;;;20.47;11.70;;;2.40;99.90;;;;;;5073687;28;20603;-61
2021/12/14 00:04:39;;;;;;;21.07;12.30;;;2.40;99.90;;;;;;5073438;28;20611;-62
2021/12/14 00:07:12;;;;;;;21.23;12.30;;;2.40;99.90;;;;;;5073239;28;20211;-62
2021/12/14 00:09:41;;;;;;;21.60;12.77;;;2.40;99.90;;;;;;5072816;28;20193;-61
2021/12/14 00:12:26;;;;;;;20.87;11.97;;;2.40;99.90;;;;;;5073698;28;20730;-61
2021/12/14 00:15:04;;;;;;;22.10;12.13;;;2.40;99.90;;;;;;5073541;28;20545;-62
2021/12/14 00:17:37;;;;;;;19.83;11.80;;;2.40;99.90;;;;;;5076566;28;20309;-61
2021/12/14 00:20:10;;;;;;;20.97;11.07;;;2.40;99.90;;;;;;5072449;28;20224;-62
2021/12/14 00:24:06;;;;;;;21.93;11.80;;;2.30;99.90;;;;;;5073107;28;20212;-62
2021/12/14 00:25:26;;;;;;;21.80;11.93;;;2.40;99.90;;;;;;5073017;28;20309;-63
2021/12/14 00:27:54;;;;;;;19.50;11.43;;;2.40;99.90;;;;;;5073129;28;20228;-62
2021/12/14 00:30:21;;;;;;;21.10;11.97;;;2.40;99.90;;;;;;5073309;28;20212;-62
2021/12/14 00:32:49;;;;;;;20.70;12.13;;;2.40;99.90;;;;;;5072933;28;20201;-63
2021/12/14 00:35:17;;;;;;;21.80;11.90;;;2.40;99.90;;;;;;5073526;28;20313;-62
2021/12/14 00:37:47;;;;;;;16.80;10.20;;;2.30;99.90;;;;;;5072768;28;20215;-62
2021/12/14 00:40:18;;;;;;;20.10;11.40;;;2.30;99.90;;;;;;5072261;28;20213;-62
2021/12/14 00:42:46;;;;;;;19.97;12.00;;;2.30;99.90;;;;;;5072329;28;20223;-61
2021/12/14 00:45:14;;;;;;;21.40;11.50;;;2.30;99.90;;;;;;5072196;28;20664;-62
2021/12/14 00:47:41;;;;;;;17.90;10.30;;;2.20;99.90;;;;;;5072312;28;20212;-62
2021/12/14 00:50:11;;;;;;;16.13;10.03;;;2.20;99.90;;;;;;5072825;28;20201;-63
2021/12/14 00:52:41;;;;;;;17.57;10.60;;;2.20;99.90;;;;;;5072106;28;20615;-62
2021/12/14 00:55:11;;;;;;;16.10;10.13;;;2.20;99.90;;;;;;5072730;28;20207;-62
2021/12/14 00:57:38;;;;;;;18.83;10.53;;;2.20;99.90;;;;;;5072468;28;20197;-62
2021/12/14 01:00:08;;;;;;;20.40;10.70;;;2.20;99.90;;;;;;5072200;28;20208;-62
2021/12/14 01:02:36;;;;;;;19.87;11.30;;;2.10;99.90;;;;;;5071959;28;20224;-61
2021/12/14 01:05:11;;;;;;;19.07;10.90;;;2.10;99.90;;;;;;5072418;28;20204;-62
2021/12/14 01:07:38;;;;;;;16.23;9.80;;;2.20;99.90;;;;;;5072145;28;20192;-62
2021/12/14 01:10:11;;;;;;;17.67;10.60;;;2.20;99.90;;;;;;5072370;28;20205;-63
2021/12/14 01:12:45;;;;;;;16.97;10.47;;;2.20;99.90;;;;;;5072143;28;20193;-63
2021/12/14 01:15:26;;;;;;;16.47;10.13;;;2.10;99.90;;;;;;5072156;28;20189;-63
2021/12/14 01:18:13;;;;;;;18.93;11.10;;;2.20;99.90;;;;;;5072131;28;20224;-62
2021/12/14 01:20:44;;;;;;;18.60;10.10;;;2.10;99.90;;;;;;5051993;28;20201;-63
2021/12/14 01:23:17;;;;;;;20.17;10.70;;;2.10;99.90;;;;;;5052152;28;20260;-63
2021/12/14 01:25:48;;;;;;;17.47;10.70;;;2.10;99.90;;;;;;5051827;28;20194;-61
2021/12/14 01:28:20;;;;;;;19.37;11.20;;;2.00;99.90;;;;;;5052254;28;20546;-61
2021/12/14 01:30:54;;;;;;;20.27;11.67;;;2.00;99.90;;;;;;5051240;28;20247;-62
2021/12/14 01:33:23;;;;;;;18.73;10.70;;;2.00;99.90;;;;;;5066989;28;20235;-63
2021/12/14 01:35:52;;;;;;;21.30;11.00;;;2.00;99.90;;;;;;5071128;28;20201;-63
2021/12/14 01:38:33;;;;;;;17.00;10.13;;;2.00;99.90;;;;;;5071756;28;20208;-62
2021/12/14 01:41:03;;;;;;;17.10;10.67;;;2.00;99.90;;;;;;5072188;28;20830;-62
2021/12/14 01:43:35;;;;;;;15.87;9.90;;;2.00;99.90;;;;;;5071778;28;20248;-61
2021/12/14 01:46:07;;;;;;;16.90;10.33;;;2.10;99.90;;;;;;5072205;28;20189;-61
2021/12/14 01:48:34;;;;;;;18.27;10.53;;;2.10;99.90;;;;;;5071657;28;20200;-61
2021/12/14 01:51:06;;;;;;;17.93;10.70;;;2.00;99.90;;;;;;5071263;28;20677;-63
2021/12/14 01:53:33;;;;;;;17.70;10.53;;;2.00;99.90;;;;;;5071583;28;20189;-62
2021/12/14 01:56:04;;;;;;;19.83;11.60;;;2.00;99.90;;;;;;5072032;28;20213;-62
2021/12/14 01:58:36;;;;;;;18.23;10.70;;;2.10;99.90;;;;;;5071255;28;20193;-62
2021/12/14 02:01:07;;;;;;;19.63;11.40;;;2.10;99.90;;;;;;5071696;28;20534;-62
2021/12/14 02:03:37;;;;;;;20.13;11.10;;;2.00;99.90;;;;;;5071330;28;20216;-62
2021/12/14 02:06:06;;;;;;;19.43;11.53;;;2.00;99.90;;;;;;5071458;28;20645;-62
2021/12/14 02:08:37;;;;;;;19.47;10.87;;;2.00;99.90;;;;;;5071763;28;20207;-62
2021/12/14 02:11:07;;;;;;;17.40;10.63;;;2.00;99.90;;;;;;5071981;28;20622;-62
2021/12/14 02:13:40;;;;;;;17.50;10.60;;;2.10;99.90;;;;;;5071638;28;20204;-62
2021/12/14 02:16:08;;;;;;;20.37;11.20;;;2.10;99.90;;;;;;5071406;28;20196;-63
2021/12/14 02:18:35;;;;;;;18.27;10.73;;;2.10;99.90;;;;;;5071274;28;20216;-62
2021/12/14 02:21:07;;;;;;;19.50;11.33;;;2.10;99.90;;;;;;5071391;28;20653;-61
2021/12/14 02:23:37;;;;;;;20.90;11.63;;;2.10;99.90;;;;;;5071322;28;20568;-62
2021/12/14 02:26:08;;;;;;;21.57;11.63;;;2.10;99.90;;;;;;5071706;28;20287;-61
2021/12/14 02:28:36;;;;;;;21.33;12.30;;;2.00;99.90;;;;;;5071472;28;20629;-63
2021/12/14 02:31:05;;;;;;;19.23;11.33;;;2.00;99.90;;;;;;5071544;28;20683;-63
2021/12/14 02:33:35;;;;;;;19.97;11.30;;;2.00;99.90;;;;;;5071211;28;20204;-62
2021/12/14 02:36:08;;;;;;;18.97;11.77;;;2.00;99.90;;;;;;5071464;28;20185;-62
2021/12/14 02:38:39;;;;;;;17.67;10.63;;;2.00;99.90;;;;;;5071507;28;20193;-63
2021/12/14 02:41:08;;;;;;;17.87;10.27;;;2.10;99.90;;;;;;5071876;28;20290;-61
2021/12/14 02:43:40;;;;;;;17.97;10.63;;;2.10;99.90;;;;;;5075230;28;20221;-61
2021/12/14 02:46:11;;;;;;;19.03;10.57;;;2.00;99.90;;;;;;5074812;28;20202;-62
2021/12/14 02:48:38;;;;;;;18.37;9.93;;;2.00;99.90;;;;;;5074956;28;20201;-62
2021/12/14 02:51:10;;;;;;;18.13;10.73;;;2.00;99.90;;;;;;5074806;28;20247;-62
2021/12/14 02:53:37;;;;;;;17.90;10.87;;;2.00;99.90;;;;;;5074446;28;20185;-61
2021/12/14 02:56:10;;;;;;;20.13;11.30;;;2.00;99.90;;;;;;5074727;28;20211;-60
2021/12/14 02:58:38;;;;;;;18.07;10.53;;;2.00;99.90;;;;;;5075225;28;20196;-61
2021/12/14 03:01:07;;;;;;;19.30;11.80;;;1.90;99.90;;;;;;5074698;28;20571;-62
2021/12/14 03:03:35;;;;;;;18.90;11.67;;;2.00;99.90;;;;;;5075077;28;20674;-62
2021/12/14 03:06:05;;;;;;;19.00;11.40;;;2.00;99.90;;;;;;5075019;28;20290;-62
2021/12/14 03:08:37;;;;;;;19.67;11.23;;;2.00;99.90;;;;;;5074758;28;20295;-62
2021/12/14 03:11:13;;;;;;;16.93;10.00;;;1.90;99.90;;;;;;5074689;28;20227;-61
2021/12/14 03:13:43;;;;;;;18.67;11.30;;;2.00;99.90;;;;;;5074577;28;20279;-64
2021/12/14 03:16:14;;;;;;;16.23;10.30;;;2.00;99.90;;;;;;5074605;28;20204;-63
2021/12/14 03:18:47;;;;;;;19.47;11.13;;;2.00;99.90;;;;;;5074570;28;20204;-62
2021/12/14 03:21:17;;;;;;;16.93;10.17;;;2.00;99.90;;;;;;5074288;28;20193;-61
2021/12/14 03:23:47;;;;;;;17.43;10.20;;;2.10;99.90;;;;;;5074521;28;20252;-62
2021/12/14 03:26:18;;;;;;;17.10;10.97;;;2.00;99.90;;;;;;5074714;28;20197;-61
2021/12/14 03:28:52;;;;;;;19.10;11.40;;;2.00;99.90;;;;;;5074591;28;20219;-61
2021/12/14 03:31:27;;;;;;;20.17;11.37;;;2.00;99.90;;;;;;5074173;28;20192;-62
2021/12/14 03:33:58;;;;;;;18.70;10.90;;;2.00;99.90;;;;;;5074088;28;20188;-62
2021/12/14 03:36:28;;;;;;;17.87;10.73;;;2.00;99.90;;;;;;5074255;28;20200;-62
2021/12/14 03:39:01;;;;;;;19.20;10.50;;;2.10;99.90;;;;;;5074402;28;20228;-61
2021/12/14 03:41:32;;;;;;;19.53;10.50;;;2.10;99.90;;;;;;5074253;28;20539;-63
2021/12/14 03:44:02;;;;;;;18.20;11.13;;;2.10;99.90;;;;;;5073939;28;20205;-63
2021/12/14 03:46:30;;;;;;;20.67;10.90;;;2.10;99.90;;;;;;5074145;28;20208;-63
2021/12/14 03:48:58;;;;;;;21.97;11.00;;;2.20;99.90;;;;;;5073851;28;20201;-62
2021/12/14 03:51:26;;;;;;;21.23;11.60;;;2.20;99.90;;;;;;5073594;28;20244;-60
2021/12/14 03:53:55;;;;;;;17.73;11.00;;;2.20;99.90;;;;;;5073307;28;20215;-63
2021/12/14 03:56:25;;;;;;;17.67;10.90;;;2.20;99.90;;;;;;5073661;28;20672;-61
2021/12/14 03:58:53;;;;;;;20.07;11.87;;;2.20;99.90;;;;;;5073326;28;20208;-62
2021/12/14 04:01:23;;;;;;;27.60;11.87;;;2.20;99.90;;;;;;5072551;28;20200;-62
2021/12/14 04:03:55;;;;;;;20.93;11.27;;;2.10;99.90;;;;;;5072297;28;20215;-62
2021/12/14 04:06:22;;;;;;;20.97;12.57;;;2.10;99.90;;;;;;5073147;28;20283;-61
2021/12/14 04:08:51;;;;;;;18.50;10.67;;;2.10;99.90;;;;;;5072965;28;20205;-61
2021/12/14 04:11:18;;;;;;;19.83;10.90;;;2.00;99.90;;;;;;5072196;28;20664;-63
2021/12/14 04:13:49;;;;;;;18.87;11.40;;;2.00;99.90;;;;;;5072571;28;20197;-62
2021/12/14 04:16:20;;;;;;;20.27;11.47;;;2.00;99.90;;;;;;5070417;28;20750;-62
2021/12/14 04:18:48;;;;;;;20.93;10.93;;;2.00;99.90;;;;;;5073303;28;20200;-62
2021/12/14 04:21:15;;;;;;;22.63;12.03;;;2.00;99.90;;;;;;5073014;28;20205;-61
2021/12/14 04:23:46;;;;;;;20.70;11.60;;;2.00;99.90;;;;;;5073247;28;20683;-62
2021/12/14 04:26:16;;;;;;;25.03;13.83;;;2.10;99.90;;;;;;5073020;28;20189;-62
2021/12/14 04:28:48;;;;;;;18.43;10.97;;;2.00;99.90;;;;;;5073038;28;20532;-62
2021/12/14 04:31:18;;;;;;;20.73;11.60;;;2.00;99.90;;;;;;5072328;28;20200;-63
2021/12/14 04:33:47;;;;;;;20.27;10.83;;;2.10;99.90;;;;;;5073073;28;20671;-61
2021/12/14 04:36:17;;;;;;;21.33;12.10;;;2.10;99.90;;;;;;5072782;28;20208;-62
2021/12/14 04:38:51;;;;;;;22.17;12.47;;;2.00;99.90;;;;;;5073337;28;20311;-61
2021/12/14 04:52:24;;;;;;;19.53;11.73;;;2.00;99.90;;;;;;5072031;28;20247;-62
2021/12/14 04:54:53;;;;;;;23.30;12.53;;;1.90;99.90;;;;;;5072503;28;20200;-61
2021/12/14 04:57:24;;;;;;;22.13;12.17;;;1.90;99.90;;;;;;5072338;28;20219;-61
2021/12/14 04:59:53;;;;;;;21.83;13.17;;;1.90;99.90;;;;;;5072700;28;20559;-61
2021/12/14 05:02:27;;;;;;;22.57;13.87;;;1.90;99.90;;;;;;5072820;28;20212;-62
2021/12/14 05:04:56;;;;;;;22.83;13.27;;;1.90;99.90;;;;;;5071199;28;20303;-63
2021/12/14 05:07:45;;;;;;;26.50;13.80;;;1.90;99.90;;;;;;5072012;28;20572;-61
2021/12/14 05:10:18;;;;;;;22.23;12.83;;;1.90;99.90;;;;;;5072325;28;20668;-62
2021/12/14 05:12:45;;;;;;;21.67;12.83;;;1.90;99.90;;;;;;5072505;28;20525;-61
2021/12/14 05:15:15;;;;;;;21.63;12.47;;;1.90;99.90;;;;;;5072379;28;20657;-62
2021/12/14 05:17:45;;;;;;;23.33;12.83;;;1.90;99.90;;;;;;5072499;28;20564;-63
2021/12/14 05:20:14;;;;;;;41.70;22.97;;;1.90;99.90;;;;;;5072146;28;20209;-62
2021/12/14 05:22:44;;;;;;;27.00;14.63;;;1.90;99.90;;;;;;5072319;28;20313;-63
2021/12/14 05:25:16;;;;;;;24.37;13.70;;;2.00;99.90;;;;;;5071645;28;20275;-63
2021/12/14 05:27:47;;;;;;;27.73;14.10;;;1.90;99.90;;;;;;5072471;28;20346;-61
2021/12/14 05:30:18;;;;;;;23.37;13.57;;;1.90;99.90;;;;;;5072159;28;20199;-63
2021/12/14 05:32:47;;;;;;;23.43;13.50;;;1.90;99.90;;;;;;5072171;28;20300;-62
2021/12/14 05:35:18;;;;;;;25.87;14.73;;;1.90;99.90;;;;;;5072026;28;20208;-62
2021/12/14 05:37:49;;;;;;;25.60;13.97;;;1.90;99.90;;;;;;5071130;28;20197;-62
2021/12/14 05:40:26;;;;;;;25.87;14.60;;;1.80;99.90;;;;;;5071878;28;20286;-61
2021/12/14 05:43:07;;;;;;;23.50;13.70;;;1.90;99.90;;;;;;5071104;28;20192;-62
2021/12/14 05:45:37;;;;;;;26.40;14.07;;;1.80;99.90;;;;;;5072115;28;20507;-61
2021/12/14 05:48:07;;;;;;;24.33;14.00;;;1.80;99.90;;;;;;5071498;28;20209;-62
2021/12/14 05:50:37;;;;;;;25.90;14.10;;;1.80;99.90;;;;;;5072051;28;20434;-62
2021/12/14 05:53:06;;;;;;;27.30;14.10;;;1.90;99.90;;;;;;5071496;28;20248;-62
2021/12/14 05:55:35;;;;;;;22.47;14.13;;;1.90;99.90;;;;;;5071470;28;20197;-63
2021/12/14 05:58:05;;;;;;;27.70;14.87;;;1.90;99.90;;;;;;5071735;28;20219;-62
2021/12/14 06:00:32;;;;;;;28.00;15.37;;;1.90;99.90;;;;;;5071757;28;20200;-62
2021/12/14 06:03:00;;;;;;;35.33;17.30;;;1.90;99.90;;;;;;5070955;28;20204;-62
2021/12/14 06:05:30;;;;;;;31.33;16.03;;;1.90;99.90;;;;;;5071403;28;20204;-62
2021/12/14 06:07:57;;;;;;;23.80;14.27;;;1.90;99.90;;;;;;5071747;28;20200;-62
2021/12/14 06:10:27;;;;;;;27.83;16.40;;;2.00;99.90;;;;;;5071711;28;20668;-63
2021/12/14 06:12:54;;;;;;;28.70;15.53;;;2.00;99.90;;;;;;5071116;28;20201;-61
2021/12/14 06:15:27;;;;;;;30.90;15.33;;;2.00;99.90;;;;;;5071364;28;20197;-61
2021/12/14 06:17:54;;;;;;;29.87;15.03;;;1.90;99.90;;;;;;5075214;28;20622;-62
2021/12/14 06:20:23;;;;;;;26.30;14.50;;;2.00;99.90;;;;;;5075300;28;20302;-63
2021/12/14 06:22:53;;;;;;;24.17;13.63;;;2.00;99.90;;;;;;5075074;28;20200;-62
2021/12/14 06:25:23;;;;;;;27.00;14.73;;;2.00;99.90;;;;;;5075496;28;20217;-61
2021/12/14 06:27:53;;;;;;;25.50;14.00;;;2.00;99.90;;;;;;5074968;28;20215;-64
2021/12/14 06:30:23;;;;;;;26.53;14.90;;;2.00;99.90;;;;;;5075263;28;20213;-62
2021/12/14 06:32:53;;;;;;;27.93;15.20;;;2.00;99.90;;;;;;5075321;28;20649;-63
2021/12/14 06:35:24;;;;;;;25.93;15.27;;;2.00;99.90;;;;;;5074856;28;20200;-62
2021/12/14 06:38:24;;;;;;;27.90;15.27;;;2.00;99.90;;;;;;5075314;28;20192;-61
2021/12/14 06:40:57;;;;;;;26.03;14.47;;;2.00;99.90;;;;;;5074947;28;20189;-63
2021/12/14 06:43:27;;;;;;;32.80;16.10;;;2.10;99.90;;;;;;5075227;28;20625;-64
2021/12/14 06:45:56;;;;;;;29.47;15.07;;;2.10;99.90;;;;;;5074524;28;20216;-62
2021/12/14 06:48:26;;;;;;;30.13;15.00;;;2.00;99.90;;;;;;5075421;28;20214;-64
2021/12/14 06:50:57;;;;;;;27.23;14.93;;;2.00;99.90;;;;;;5074923;28;20265;-62
2021/12/14 06:53:27;;;;;;;28.00;15.70;;;2.00;99.90;;;;;;5074651;28;20193;-62
2021/12/14 06:55:57;;;;;;;29.97;16.13;;;2.00;99.90;;;;;;5074839;28;20569;-63
2021/12/14 06:58:26;;;;;;;28.33;16.50;;;2.00;99.90;;;;;;5074920;28;20196;-61
2021/12/14 07:01:00;;;;;;;30.60;15.77;;;2.00;99.90;;;;;;5074701;28;20208;-62
2021/12/14 07:03:37;;;;;;;26.43;15.10;;;2.00;99.90;;;;;;5074488;28;20189;-61
2021/12/14 07:06:05;;;;;;;28.77;15.30;;;2.00;99.90;;;;;;5073999;28;20528;-62
2021/12/14 07:08:33;;;;;;;29.07;15.50;;;2.00;99.90;;;;;;5074712;28;20200;-63
2021/12/14 07:11:00;;;;;;;30.33;16.60;;;2.00;99.90;;;;;;5074252;28;20497;-63
2021/12/14 07:13:35;;;;;;;33.40;17.30;;;2.00;99.90;;;;;;5073841;28;20216;-63
2021/12/14 07:16:02;;;;;;;32.13;17.70;;;2.00;99.90;;;;;;5074400;28;20603;-62
2021/12/14 07:18:31;;;;;;;41.73;18.57;;;2.00;99.90;;;;;;5074043;28;20197;-62
2021/12/14 07:20:59;;;;;;;33.33;17.43;;;2.00;99.90;;;;;;5073847;28;20284;-62
2021/12/14 07:23:28;;;;;;;31.13;16.57;;;2.00;99.90;;;;;;5074585;28;20582;-62
2021/12/14 07:26:02;;;;;;;28.40;15.57;;;2.00;99.90;;;;;;5074010;28;20650;-63
2021/12/14 07:28:31;;;;;;;32.27;16.87;;;1.90;99.90;;;;;;5062314;28;20213;-62
2021/12/14 07:31:04;;;;;;;33.50;17.23;;;1.90;99.90;;;;;;5073918;28;20215;-63
2021/12/14 07:33:33;;;;;;;32.93;16.90;;;1.90;99.90;;;;;;5074471;28;20201;-63
2021/12/14 07:36:03;;;;;;;35.40;17.80;;;2.00;99.90;;;;;;5074164;28;20204;-62
2021/12/14 07:38:40;;;;;;;38.03;18.97;;;2.00;99.90;;;;;;5074313;28;20235;-62
2021/12/14 07:41:17;;;;;;;33.13;17.80;;;2.10;99.90;;;;;;5074282;28;20192;-61
2021/12/14 07:43:48;;;;;;;36.67;18.47;;;2.10;99.90;;;;;;5073742;28;20214;-62
2021/12/14 07:46:31;;;;;;;36.40;17.87;;;2.10;99.90;;;;;;5072205;28;20197;-61
2021/12/14 07:49:01;;;;;;;32.23;17.10;;;2.10;99.90;;;;;;5072908;28;20204;-62
2021/12/14 07:51:32;;;;;;;30.63;16.67;;;2.00;99.90;;;;;;5073798;28;20319;-61
2021/12/14 07:54:04;;;;;;;35.20;18.97;;;2.10;99.90;;;;;;5073473;28;20193;-61
2021/12/14 07:56:38;;;;;;;35.83;18.03;;;2.10;99.90;;;;;;5073558;28;20553;-63
2021/12/14 07:59:16;;;;;;;36.80;19.70;;;2.10;99.90;;;;;;5073714;28;20526;-63
2021/12/14 08:01:43;;;;;;;34.33;18.10;;;2.20;99.90;;;;;;5072577;28;20319;-63
2021/12/14 08:04:12;;;;;;;36.77;17.70;;;2.20;99.90;;;;;;5074743;28;20228;-62
2021/12/14 08:06:44;;;;;;;33.63;17.07;;;2.20;99.90;;;;;;5073493;28;20212;-64
2021/12/14 08:09:17;;;;;;;29.17;16.87;;;2.30;99.90;;;;;;5073348;28;20197;-62
2021/12/14 08:11:48;;;;;;;34.77;17.17;;;2.40;99.90;;;;;;5073175;28;20288;-64
2021/12/14 08:14:23;;;;;;;36.30;17.43;;;2.40;99.90;;;;;;5073364;28;20629;-64
2021/12/14 08:16:54;;;;;;;31.87;17.03;;;2.40;99.90;;;;;;5073026;28;20199;-63
2021/12/14 08:19:30;;;;;;;33.23;17.00;;;2.40;99.90;;;;;;5072784;28;20219;-62
2021/12/14 08:21:58;;;;;;;33.03;18.20;;;2.30;99.90;;;;;;5062248;28;20669;-62
2021/12/14 08:24:25;;;;;;;34.27;19.23;;;2.30;99.90;;;;;;5053428;28;20229;-63
2021/12/14 08:26:56;;;;;;;30.63;17.13;;;2.30;99.90;;;;;;5061891;28;20225;-61
2021/12/14 08:29:25;;;;;;;32.93;17.37;;;2.20;99.90;;;;;;5071615;28;20229;-63
2021/12/14 08:31:55;;;;;;;30.20;17.63;;;2.20;99.90;;;;;;5071855;28;20207;-63
2021/12/14 08:34:25;;;;;;;31.50;17.93;;;2.20;99.90;;;;;;5071493;28;20204;-62
2021/12/14 08:36:55;;;;;;;35.93;17.87;;;2.10;99.90;;;;;;5071545;28;20207;-62
2021/12/14 08:39:24;;;;;;;30.57;17.23;;;2.10;99.90;;;;;;5071645;28;20307;-63
2021/12/14 08:42:07;;;;;;;27.77;16.30;;;2.10;99.90;;;;;;5071559;28;20295;-63
2021/12/14 08:44:39;;;;;;;30.40;17.03;;;2.10;99.90;;;;;;5070722;28;20228;-65
2021/12/14 08:47:09;;;;;;;27.57;15.30;;;2.10;99.90;;;;;;5071019;28;20185;-63
2021/12/14 08:49:36;;;;;;;24.70;14.93;;;2.10;99.90;;;;;;5071024;28;20744;-61
2021/12/14 08:52:05;;;;;;;27.70;16.17;;;2.10;99.90;;;;;;5071525;28;20236;-62
2021/12/14 08:54:34;;;;;;;27.27;16.20;;;2.10;99.90;;;;;;5072127;28;20200;-63
2021/12/14 08:57:07;;;;;;;26.80;14.93;;;2.20;99.90;;;;;;5072863;28;20200;-63
2021/12/14 08:59:35;;;;;;;25.47;15.13;;;2.10;99.90;;;;;;5072535;28;20193;-63
2021/12/14 09:02:05;;;;;;;26.83;15.70;;;2.10;99.90;;;;;;5072624;28;20669;-61
2021/12/14 09:04:36;;;;;;;28.10;16.40;;;2.20;99.90;;;;;;5071997;28;20209;-62
2021/12/14 09:07:06;;;;;;;27.77;16.07;;;2.20;99.90;;;;;;5072582;28;20291;-62
2021/12/14 09:09:34;;;;;;;31.07;16.87;;;2.20;99.90;;;;;;5072144;28;20259;-62
2021/12/14 09:12:08;;;;;;;24.60;14.57;;;2.20;99.90;;;;;;5072019;28;20233;-63
2021/12/14 09:14:36;;;;;;;23.80;13.37;;;2.20;99.90;;;;;;5072129;28;20188;-63
2021/12/14 09:17:05;;;;;;;23.43;14.07;;;2.20;99.90;;;;;;5072052;28;20215;-63
2021/12/14 09:19:36;;;;;;;22.00;13.37;;;2.20;99.90;;;;;;5072047;28;20211;-63
2021/12/14 09:22:07;;;;;;;20.43;13.17;;;2.20;99.90;;;;;;5072578;28;20203;-65
2021/12/14 09:24:34;;;;;;;19.57;12.00;;;2.20;99.90;;;;;;5071777;28;20239;-66
2021/12/14 09:27:06;;;;;;;21.50;12.80;;;2.20;99.90;;;;;;5072097;28;20205;-65
2021/12/14 09:29:34;;;;;;;22.13;13.53;;;2.10;99.90;;;;;;5071932;28;20219;-63
2021/12/14 09:32:06;;;;;;;22.47;13.00;;;2.10;99.90;;;;;;5072152;28;20231;-63
2021/12/14 09:34:35;;;;;;;23.40;13.20;;;2.10;99.90;;;;;;5071567;28;20370;-66
2021/12/14 09:37:04;;;;;;;28.33;15.33;;;2.10;99.90;;;;;;5070586;28;20197;-63
2021/12/14 09:39:34;;;;;;;20.80;12.43;;;2.10;99.90;;;;;;5071030;28;20201;-62
2021/12/14 09:42:07;;;;;;;24.67;14.70;;;2.10;99.90;;;;;;5071974;28;20215;-63
2021/12/14 09:44:36;;;;;;;23.43;12.97;;;2.10;99.90;;;;;;5071115;28;20213;-63
2021/12/14 09:47:08;;;;;;;23.53;12.73;;;2.10;99.90;;;;;;5071760;28;20234;-63
2021/12/14 09:49:35;;;;;;;21.87;13.30;;;2.10;99.90;;;;;;5071477;28;20215;-63
2021/12/14 09:52:06;;;;;;;23.47;13.37;;;2.10;99.90;;;;;;5070832;28;20816;-62
2021/12/14 09:54:33;;;;;;;23.73;13.10;;;2.10;99.90;;;;;;5071634;28;20212;-61
2021/12/14 09:57:06;;;;;;;22.87;12.73;;;2.10;99.90;;;;;;5071653;28;20647;-64
2021/12/14 09:59:33;;;;;;;21.70;13.50;;;2.10;99.90;;;;;;5071578;28;20193;-64
2021/12/14 10:02:04;;;;;;;21.70;13.30;;;2.10;99.90;;;;;;5071251;28;20200;-64
2021/12/14 10:04:34;;;;;;;24.03;13.53;;;2.10;99.90;;;;;;5071274;28;20557;-63
2021/12/14 10:07:04;;;;;;;21.03;13.37;;;2.00;99.90;;;;;;5071081;28;20775;-62
2021/12/14 10:09:38;;;;;;;21.63;13.40;;;2.00;99.90;;;;;;5068767;28;20436;-63
2021/12/14 10:12:19;;;;;;;23.02;14.38;;;2.00;99.90;;;;;;5069743;28;20432;-62
2021/12/14 10:14:48;;;;;;;25.57;14.37;;;2.10;99.90;;;;;;5071543;28;20189;-62
2021/12/14 10:17:18;;;;;;;23.30;13.70;;;2.00;99.90;;;;;;5071069;28;20242;-64
2021/12/14 10:19:46;;;;;;;22.57;14.07;;;2.10;99.90;;;;;;5071124;28;20234;-63
2021/12/14 10:22:17;;;;;;;25.67;13.93;;;2.00;99.90;;;;;;5071305;28;20200;-63
2021/12/14 10:24:44;;;;;;;23.53;13.33;;;2.00;99.90;;;;;;5071087;28;20213;-64
2021/12/14 10:27:21;;;;;;;25.50;13.57;;;2.10;99.90;;;;;;5071101;28;20208;-64
2021/12/14 10:29:49;;;;;;;25.87;13.10;;;2.10;99.90;;;;;;5071352;28;20220;-63
2021/12/14 10:32:19;;;;;;;20.63;11.77;;;2.10;99.90;;;;;;5070657;28;20654;-62
2021/12/14 10:34:51;;;;;;;21.73;11.97;;;2.20;99.90;;;;;;5070677;28;20192;-62
2021/12/14 10:37:24;;;;;;;23.93;11.30;;;2.20;99.90;;;;;;5070242;28;20250;-63
2021/12/14 10:43:12;;;;;;;19.47;10.90;;;2.20;99.90;;;;;;5070810;28;20254;-62
2021/12/14 10:45:41;;;;;;;24.63;12.93;;;2.10;99.90;;;;;;5070579;28;20223;-62
2021/12/14 10:48:09;;;;;;;22.47;12.80;;;2.20;99.90;;;;;;5070864;28;20209;-63
2021/12/14 10:50:40;;;;;;;26.30;13.27;;;2.10;99.90;;;;;;5070767;28;20205;-64
2021/12/14 10:53:09;;;;;;;30.67;14.07;;;2.10;99.90;;;;;;5070788;28;20244;-64
2021/12/14 10:55:44;;;;;;;26.00;13.33;;;2.20;99.90;;;;;;5070575;28;20212;-65
2021/12/14 10:58:16;;;;;;;26.13;13.33;;;2.20;99.90;;;;;;5070538;28;20196;-63
2021/12/14 11:00:48;;;;;;;23.93;13.03;;;2.10;99.90;;;;;;5070889;28;20646;-64
2021/12/14 11:03:18;;;;;;;29.23;13.63;;;2.10;99.90;;;;;;5072342;28;20192;-63
2021/12/14 11:05:51;;;;;;;29.77;14.23;;;2.10;99.90;;;;;;5074573;28;20592;-62
2021/12/14 11:08:35;;;;;;;29.30;13.33;;;2.10;99.90;;;;;;5074397;28;20672;-65
2021/12/14 11:11:05;;;;;;;28.23;14.23;;;2.10;99.90;;;;;;5074704;28;20215;-65
2021/12/14 11:13:40;;;;;;;29.00;14.00;;;2.00;99.90;;;;;;5073841;28;20626;-63
2021/12/14 11:16:15;;;;;;;32.27;15.90;;;2.00;99.90;;;;;;5074204;28;20195;-65
2021/12/14 11:18:43;;;;;;;29.80;14.97;;;2.00;99.90;;;;;;5074312;28;20214;-67
2021/12/14 11:21:13;;;;;;;31.27;14.97;;;2.00;99.90;;;;;;5073965;28;20236;-64
2021/12/14 11:23:43;;;;;;;30.63;15.80;;;2.00;99.90;;;;;;5074111;28;20244;-63
2021/12/14 11:26:14;;;;;;;33.67;15.87;;;2.00;99.90;;;;;;5074204;28;20579;-63
2021/12/14 11:28:44;;;;;;;34.03;16.33;;;2.00;99.90;;;;;;5074059;28;20215;-65
2021/12/14 11:31:22;;;;;;;38.47;16.27;;;2.10;99.90;;;;;;5073658;28;20216;-66
2021/12/14 11:33:52;;;;;;;34.47;16.20;;;2.10;99.90;;;;;;5073918;28;20203;-66
2021/12/14 11:36:24;;;;;;;32.83;14.93;;;2.10;99.90;;;;;;5073947;28;20288;-65
2021/12/14 11:39:04;;;;;;;34.90;15.17;;;2.10;99.90;;;;;;5073970;28;20189;-64
2021/12/14 11:41:37;;;;;;;33.23;16.00;;;2.10;99.90;;;;;;5073770;28;20192;-65
2021/12/14 11:44:12;;;;;;;36.73;15.20;;;2.10;99.90;;;;;;5073623;28;20205;-65
2021/12/14 11:47:03;;;;;;;32.30;13.93;;;2.10;99.90;;;;;;5073819;28;20231;-64
2021/12/14 11:49:50;;;;;;;34.00;14.90;;;2.20;99.90;;;;;;5070093;28;20212;-64
2021/12/14 11:52:36;;;;;;;35.07;14.33;;;2.20;99.90;;;;;;5072475;28;20224;-65
2021/12/14 11:55:17;;;;;;;38.47;17.80;;;2.30;99.90;;;;;;5073512;28;20192;-64
2021/12/14 11:57:44;;;;;;;42.23;16.93;;;2.30;99.90;;;;;;5073652;28;20205;-64
2021/12/14 12:00:20;;;;;;;38.50;16.70;;;2.20;99.90;;;;;;5072322;28;20208;-64
2021/12/14 12:02:47;;;;;;;30.77;14.10;;;2.20;99.90;;;;;;5073461;28;20193;-63
2021/12/14 12:05:15;;;;;;;36.70;16.97;;;2.20;99.90;;;;;;5073037;28;20251;-65
2021/12/14 12:10:40;;;;;;;36.50;17.47;;;2.20;99.90;;;;;;5010098;28;20191;-62
2021/12/14 12:13:06;;;;;;;37.83;16.80;;;2.20;99.90;;;;;;5057595;28;20207;-64
2021/12/14 12:15:40;;;;;;;41.43;17.30;;;2.10;99.90;;;;;;5072308;28;20189;-63
2021/12/14 12:18:07;;;;;;;45.33;18.77;;;2.10;99.90;;;;;;5071637;28;20406;-64
2021/12/14 12:20:37;;;;;;;45.67;17.10;;;2.10;99.90;;;;;;5072385;28;20212;-63
2021/12/14 12:23:07;;;;;;;42.10;17.23;;;2.10;99.90;;;;;;5070066;28;20637;-63
2021/12/14 12:25:37;;;;;;;43.27;17.83;;;2.10;99.90;;;;;;5071871;28;20220;-63
2021/12/14 12:28:06;;;;;;;48.43;18.17;;;2.10;99.90;;;;;;5072356;28;20197;-63
2021/12/14 12:30:49;;;;;;;56.97;20.43;;;2.00;99.90;;;;;;5072641;28;20203;-63
2021/12/14 12:33:24;;;;;;;47.80;19.53;;;2.10;99.90;;;;;;5072353;28;20287;-64
2021/12/14 12:35:55;;;;;;;42.00;18.47;;;2.00;99.90;;;;;;5072543;28;20199;-64
2021/12/14 12:38:27;;;;;;;41.30;18.13;;;2.00;99.90;;;;;;5072817;28;20193;-63
2021/12/14 12:40:59;;;;;;;44.93;18.17;;;2.00;99.90;;;;;;5072822;28;20798;-64
2021/12/14 12:43:30;;;;;;;42.93;18.27;;;2.00;99.90;;;;;;5073068;28;20594;-67
2021/12/14 12:46:06;;;;;;;44.30;18.07;;;2.00;99.90;;;;;;5072494;28;20212;-66
2021/12/14 12:49:05;;;;;;;36.93;16.50;;;2.00;99.90;;;;;;5072424;28;20203;-64
2021/12/14 12:51:55;;;;;;;41.07;16.93;;;2.00;99.90;;;;;;5072220;28;20286;-65
2021/12/14 12:54:37;;;;;;;46.90;18.07;;;2.00;99.90;;;;;;5063608;28;20205;-63
2021/12/14 12:57:34;;;;;;;37.47;16.00;;;2.00;99.90;;;;;;5071667;28;20185;-64
2021/12/14 13:00:34;;;;;;;30.03;15.37;;;2.00;99.90;;;;;;5067561;28;20569;-64
2021/12/14 13:03:08;;;;;;;34.47;15.33;;;1.90;99.90;;;;;;5071708;28;20258;-65
2021/12/14 13:05:39;;;;;;;33.30;16.87;;;2.00;99.90;;;;;;5071672;28;20235;-64
2021/12/14 13:08:16;;;;;;;33.30;16.23;;;2.00;99.90;;;;;;5070672;28;20203;-63
2021/12/14 13:10:45;;;;;;;38.50;16.83;;;2.00;99.90;;;;;;5071208;28;20216;-63
2021/12/14 13:13:14;;;;;;;44.63;18.13;;;2.00;99.90;;;;;;5071910;28;20213;-64
2021/12/14 13:16:01;;;;;;;36.83;16.33;;;2.00;99.90;;;;;;5071883;28;20205;-65
2021/12/14 13:18:36;;;;;;;39.53;16.83;;;2.00;99.90;;;;;;5072187;28;20652;-64